sensor_id;sensor_type;location;lat;lon;timestamp;P1;durP1;ratioP1;P2;durP2;ratioP2
10250;SDS011;5170;58.692;12.478;2023-04-23T00:02:32;5.97;;;2.57;;
10250;SDS011;5170;58.692;12.478;2023-04-23T00:05:20;4.10;;;2.23;;
10250;SDS011;5170;58.692;12.478;2023-04-23T00:08:10;4.60;;;2.67;;
10250;SDS011;5170;58.692;12.478;2023-04-23T00:10:58;2.60;;;2.23;;
10250;SDS011;5170;58.692;12.478;2023-04-23T00:13:46;4.03;;;2.40;;
10250;SDS011;5170;58.692;12.478;2023-04-23T00:16:35;2.40;;;1.87;;
10250;SDS011;5170;58.692;12.478;2023-04-23T00:19:22;3.13;;;1.80;;
10250;SDS011;5170;58.692;12.478;2023-04-23T00:22:10;3.87;;;2.13;;
10250;SDS011;5170;58.692;12.478;2023-04-23T00:25:00;6.27;;;2.63;;
10250;SDS011;5170;58.692;12.478;2023-04-23T00:27:48;3.23;;;1.77;;
10250;SDS011;5170;58.692;12.478;2023-04-23T00:30:35;2.53;;;2.10;;
10250;SDS011;5170;58.692;12.478;2023-04-23T00:33:23;3.87;;;1.97;;
10250;SDS011;5170;58.692;12.478;2023-04-23T00:36:11;4.73;;;1.97;;
10250;SDS011;5170;58.692;12.478;2023-04-23T00:38:59;4.50;;;2.57;;
10250;SDS011;5170;58.692;12.478;2023-04-23T00:41:48;4.57;;;2.63;;
10250;SDS011;5170;58.692;12.478;2023-04-23T00:44:36;4.80;;;2.43;;
10250;SDS011;5170;58.692;12.478;2023-04-23T00:47:23;4.17;;;1.83;;
10250;SDS011;5170;58.692;12.478;2023-04-23T00:50:11;2.73;;;1.80;;
10250;SDS011;5170;58.692;12.478;2023-04-23T00:52:59;3.07;;;2.10;;
10250;SDS011;5170;58.692;12.478;2023-04-23T00:55:47;8.30;;;4.60;;
10250;SDS011;5170;58.692;12.478;2023-04-23T00:58:36;4.57;;;2.87;;
10250;SDS011;5170;58.692;12.478;2023-04-23T01:01:24;3.93;;;2.37;;
10250;SDS011;5170;58.692;12.478;2023-04-23T01:04:13;2.97;;;2.40;;
10250;SDS011;5170;58.692;12.478;2023-04-23T01:07:01;2.73;;;2.30;;
10250;SDS011;5170;58.692;12.478;2023-04-23T01:09:49;3.07;;;2.23;;
10250;SDS011;5170;58.692;12.478;2023-04-23T01:12:37;5.43;;;3.83;;
10250;SDS011;5170;58.692;12.478;2023-04-23T01:15:26;4.17;;;2.57;;
10250;SDS011;5170;58.692;12.478;2023-04-23T01:18:14;3.73;;;2.63;;
10250;SDS011;5170;58.692;12.478;2023-04-23T01:21:03;2.80;;;1.83;;
10250;SDS011;5170;58.692;12.478;2023-04-23T01:23:53;4.83;;;2.83;;
10250;SDS011;5170;58.692;12.478;2023-04-23T01:26:40;5.10;;;2.87;;
10250;SDS011;5170;58.692;12.478;2023-04-23T01:29:29;2.90;;;2.00;;
10250;SDS011;5170;58.692;12.478;2023-04-23T01:32:17;3.63;;;2.07;;
10250;SDS011;5170;58.692;12.478;2023-04-23T01:35:05;5.43;;;2.83;;
10250;SDS011;5170;58.692;12.478;2023-04-23T01:37:53;3.53;;;2.30;;
10250;SDS011;5170;58.692;12.478;2023-04-23T01:40:42;6.17;;;3.27;;
10250;SDS011;5170;58.692;12.478;2023-04-23T01:43:30;3.23;;;2.20;;
10250;SDS011;5170;58.692;12.478;2023-04-23T01:46:19;2.77;;;1.90;;
10250;SDS011;5170;58.692;12.478;2023-04-23T01:49:06;5.37;;;2.73;;
10250;SDS011;5170;58.692;12.478;2023-04-23T01:51:54;4.10;;;2.83;;
10250;SDS011;5170;58.692;12.478;2023-04-23T01:54:42;3.83;;;2.23;;
10250;SDS011;5170;58.692;12.478;2023-04-23T01:57:31;2.77;;;2.10;;
10250;SDS011;5170;58.692;12.478;2023-04-23T02:00:19;3.87;;;2.07;;
10250;SDS011;5170;58.692;12.478;2023-04-23T02:03:07;2.80;;;2.03;;
10250;SDS011;5170;58.692;12.478;2023-04-23T02:05:55;2.57;;;2.20;;
10250;SDS011;5170;58.692;12.478;2023-04-23T02:08:43;2.57;;;2.10;;
10250;SDS011;5170;58.692;12.478;2023-04-23T02:11:30;3.63;;;2.00;;
10250;SDS011;5170;58.692;12.478;2023-04-23T02:14:19;6.93;;;3.87;;
10250;SDS011;5170;58.692;12.478;2023-04-23T02:17:07;2.23;;;2.00;;
10250;SDS011;5170;58.692;12.478;2023-04-23T02:19:55;3.60;;;2.47;;
10250;SDS011;5170;58.692;12.478;2023-04-23T02:22:43;3.07;;;1.80;;
10250;SDS011;5170;58.692;12.478;2023-04-23T02:25:31;4.10;;;2.27;;
10250;SDS011;5170;58.692;12.478;2023-04-23T02:28:19;8.83;;;4.03;;
10250;SDS011;5170;58.692;12.478;2023-04-23T02:31:08;3.97;;;2.03;;
10250;SDS011;5170;58.692;12.478;2023-04-23T02:33:56;3.73;;;2.40;;
10250;SDS011;5170;58.692;12.478;2023-04-23T02:36:43;3.53;;;2.00;;
10250;SDS011;5170;58.692;12.478;2023-04-23T02:39:31;5.00;;;2.30;;
10250;SDS011;5170;58.692;12.478;2023-04-23T02:42:19;3.10;;;2.03;;
10250;SDS011;5170;58.692;12.478;2023-04-23T02:45:07;5.57;;;2.47;;
10250;SDS011;5170;58.692;12.478;2023-04-23T02:47:56;2.37;;;2.17;;
10250;SDS011;5170;58.692;12.478;2023-04-23T02:50:44;2.97;;;2.07;;
10250;SDS011;5170;58.692;12.478;2023-04-23T02:53:32;3.23;;;2.23;;
10250;SDS011;5170;58.692;12.478;2023-04-23T02:56:20;2.20;;;1.93;;
10250;SDS011;5170;58.692;12.478;2023-04-23T02:59:08;2.70;;;1.77;;
10250;SDS011;5170;58.692;12.478;2023-04-23T03:01:56;2.90;;;1.93;;
10250;SDS011;5170;58.692;12.478;2023-04-23T03:04:45;4.30;;;2.20;;
10250;SDS011;5170;58.692;12.478;2023-04-23T03:07:33;9.27;;;2.60;;
10250;SDS011;5170;58.692;12.478;2023-04-23T03:10:20;7.90;;;2.67;;
10250;SDS011;5170;58.692;12.478;2023-04-23T03:13:08;5.40;;;2.77;;
10250;SDS011;5170;58.692;12.478;2023-04-23T03:15:56;4.07;;;2.30;;
10250;SDS011;5170;58.692;12.478;2023-04-23T03:18:44;3.23;;;2.17;;
10250;SDS011;5170;58.692;12.478;2023-04-23T03:21:33;3.40;;;1.83;;
10250;SDS011;5170;58.692;12.478;2023-04-23T03:24:21;4.23;;;2.23;;
10250;SDS011;5170;58.692;12.478;2023-04-23T03:27:09;3.23;;;1.97;;
10250;SDS011;5170;58.692;12.478;2023-04-23T03:29:58;2.80;;;1.90;;
10250;SDS011;5170;58.692;12.478;2023-04-23T03:32:46;3.77;;;1.93;;
10250;SDS011;5170;58.692;12.478;2023-04-23T03:35:33;2.77;;;1.47;;
10250;SDS011;5170;58.692;12.478;2023-04-23T03:38:23;2.80;;;1.57;;
10250;SDS011;5170;58.692;12.478;2023-04-23T03:41:10;2.10;;;1.30;;
10250;SDS011;5170;58.692;12.478;2023-04-23T03:43:58;1.83;;;1.30;;
10250;SDS011;5170;58.692;12.478;2023-04-23T03:46:46;2.83;;;1.43;;
10250;SDS011;5170;58.692;12.478;2023-04-23T03:49:33;1.70;;;1.20;;
10250;SDS011;5170;58.692;12.478;2023-04-23T03:52:21;1.90;;;1.27;;
10250;SDS011;5170;58.692;12.478;2023-04-23T03:55:10;1.67;;;1.30;;
10250;SDS011;5170;58.692;12.478;2023-04-23T03:57:58;3.90;;;1.50;;
10250;SDS011;5170;58.692;12.478;2023-04-23T04:00:46;3.47;;;1.30;;
10250;SDS011;5170;58.692;12.478;2023-04-23T04:03:33;1.87;;;1.40;;
10250;SDS011;5170;58.692;12.478;2023-04-23T04:06:21;2.83;;;1.37;;
10250;SDS011;5170;58.692;12.478;2023-04-23T04:09:09;4.40;;;1.80;;
10250;SDS011;5170;58.692;12.478;2023-04-23T04:11:58;1.83;;;1.10;;
10250;SDS011;5170;58.692;12.478;2023-04-23T04:14:46;1.40;;;1.30;;
10250;SDS011;5170;58.692;12.478;2023-04-23T04:17:33;1.73;;;1.37;;
10250;SDS011;5170;58.692;12.478;2023-04-23T04:20:21;2.20;;;1.37;;
10250;SDS011;5170;58.692;12.478;2023-04-23T04:23:09;3.80;;;1.17;;
10250;SDS011;5170;58.692;12.478;2023-04-23T04:25:57;1.77;;;1.00;;
10250;SDS011;5170;58.692;12.478;2023-04-23T04:28:46;2.93;;;1.03;;
10250;SDS011;5170;58.692;12.478;2023-04-23T04:31:34;1.40;;;0.97;;
10250;SDS011;5170;58.692;12.478;2023-04-23T04:34:21;2.80;;;2.00;;
10250;SDS011;5170;58.692;12.478;2023-04-23T04:37:09;7.93;;;2.00;;
10250;SDS011;5170;58.692;12.478;2023-04-23T04:39:57;1.00;;;0.90;;
10250;SDS011;5170;58.692;12.478;2023-04-23T04:42:45;1.07;;;0.80;;
10250;SDS011;5170;58.692;12.478;2023-04-23T04:45:34;1.00;;;0.80;;
10250;SDS011;5170;58.692;12.478;2023-04-23T04:48:22;1.30;;;0.97;;
10250;SDS011;5170;58.692;12.478;2023-04-23T04:51:10;1.70;;;1.30;;
10250;SDS011;5170;58.692;12.478;2023-04-23T04:53:57;2.43;;;1.73;;
10250;SDS011;5170;58.692;12.478;2023-04-23T04:56:46;2.63;;;1.53;;
10250;SDS011;5170;58.692;12.478;2023-04-23T04:59:33;1.93;;;1.60;;
10250;SDS011;5170;58.692;12.478;2023-04-23T05:02:22;1.60;;;1.20;;
10250;SDS011;5170;58.692;12.478;2023-04-23T05:05:11;2.10;;;1.23;;
10250;SDS011;5170;58.692;12.478;2023-04-23T05:07:58;1.90;;;1.10;;
10250;SDS011;5170;58.692;12.478;2023-04-23T05:10:46;1.63;;;1.30;;
10250;SDS011;5170;58.692;12.478;2023-04-23T05:13:35;1.17;;;0.80;;
10250;SDS011;5170;58.692;12.478;2023-04-23T05:16:23;1.30;;;0.90;;
10250;SDS011;5170;58.692;12.478;2023-04-23T05:19:12;1.03;;;0.97;;
10250;SDS011;5170;58.692;12.478;2023-04-23T05:22:00;2.37;;;1.33;;
10250;SDS011;5170;58.692;12.478;2023-04-23T05:24:48;1.33;;;0.60;;
10250;SDS011;5170;58.692;12.478;2023-04-23T05:27:36;1.33;;;0.83;;
10250;SDS011;5170;58.692;12.478;2023-04-23T05:30:24;0.70;;;0.63;;
10250;SDS011;5170;58.692;12.478;2023-04-23T05:33:12;1.07;;;0.70;;
10250;SDS011;5170;58.692;12.478;2023-04-23T05:36:01;2.37;;;0.93;;
10250;SDS011;5170;58.692;12.478;2023-04-23T05:38:49;1.77;;;1.13;;
10250;SDS011;5170;58.692;12.478;2023-04-23T05:41:37;1.63;;;0.83;;
10250;SDS011;5170;58.692;12.478;2023-04-23T05:44:25;1.47;;;1.20;;
10250;SDS011;5170;58.692;12.478;2023-04-23T05:47:13;1.50;;;0.80;;
10250;SDS011;5170;58.692;12.478;2023-04-23T05:50:01;1.00;;;0.80;;
10250;SDS011;5170;58.692;12.478;2023-04-23T05:52:50;1.13;;;1.03;;
10250;SDS011;5170;58.692;12.478;2023-04-23T05:55:38;1.77;;;0.97;;
10250;SDS011;5170;58.692;12.478;2023-04-23T05:58:26;0.93;;;0.80;;
10250;SDS011;5170;58.692;12.478;2023-04-23T06:01:13;1.00;;;0.90;;
10250;SDS011;5170;58.692;12.478;2023-04-23T06:04:01;2.10;;;0.90;;
10250;SDS011;5170;58.692;12.478;2023-04-23T06:06:49;4.47;;;1.07;;
10250;SDS011;5170;58.692;12.478;2023-04-23T06:09:38;1.00;;;0.87;;
10250;SDS011;5170;58.692;12.478;2023-04-23T06:12:26;1.57;;;1.20;;
10250;SDS011;5170;58.692;12.478;2023-04-23T06:15:14;1.57;;;0.90;;
10250;SDS011;5170;58.692;12.478;2023-04-23T06:18:02;1.93;;;0.90;;
10250;SDS011;5170;58.692;12.478;2023-04-23T06:20:50;1.70;;;1.00;;
10250;SDS011;5170;58.692;12.478;2023-04-23T06:23:37;0.97;;;0.60;;
10250;SDS011;5170;58.692;12.478;2023-04-23T06:26:27;0.70;;;0.60;;
10250;SDS011;5170;58.692;12.478;2023-04-23T06:29:14;2.40;;;0.90;;
10250;SDS011;5170;58.692;12.478;2023-04-23T06:32:02;0.70;;;0.70;;
10250;SDS011;5170;58.692;12.478;2023-04-23T06:34:50;1.47;;;1.00;;
10250;SDS011;5170;58.692;12.478;2023-04-23T06:37:38;1.07;;;0.67;;
10250;SDS011;5170;58.692;12.478;2023-04-23T06:40:25;0.80;;;0.77;;
10250;SDS011;5170;58.692;12.478;2023-04-23T06:43:15;1.20;;;0.87;;
10250;SDS011;5170;58.692;12.478;2023-04-23T06:46:03;2.03;;;0.73;;
10250;SDS011;5170;58.692;12.478;2023-04-23T06:48:50;0.97;;;0.87;;
10250;SDS011;5170;58.692;12.478;2023-04-23T06:51:38;1.10;;;0.80;;
10250;SDS011;5170;58.692;12.478;2023-04-23T06:54:26;1.20;;;1.10;;
10250;SDS011;5170;58.692;12.478;2023-04-23T06:57:14;1.40;;;1.00;;
10250;SDS011;5170;58.692;12.478;2023-04-23T07:00:04;1.13;;;0.70;;
10250;SDS011;5170;58.692;12.478;2023-04-23T07:02:53;1.43;;;1.10;;
10250;SDS011;5170;58.692;12.478;2023-04-23T07:05:41;1.23;;;0.70;;
10250;SDS011;5170;58.692;12.478;2023-04-23T07:08:28;1.50;;;0.90;;
10250;SDS011;5170;58.692;12.478;2023-04-23T07:11:16;2.13;;;0.70;;
10250;SDS011;5170;58.692;12.478;2023-04-23T07:14:05;0.70;;;0.67;;
10250;SDS011;5170;58.692;12.478;2023-04-23T07:16:54;1.40;;;0.70;;
10250;SDS011;5170;58.692;12.478;2023-04-23T07:19:43;1.27;;;0.70;;
10250;SDS011;5170;58.692;12.478;2023-04-23T07:22:31;0.90;;;0.80;;
10250;SDS011;5170;58.692;12.478;2023-04-23T07:25:19;1.73;;;0.70;;
10250;SDS011;5170;58.692;12.478;2023-04-23T07:28:09;1.73;;;0.80;;
10250;SDS011;5170;58.692;12.478;2023-04-23T07:30:57;1.13;;;0.70;;
10250;SDS011;5170;58.692;12.478;2023-04-23T07:33:46;1.73;;;0.87;;
10250;SDS011;5170;58.692;12.478;2023-04-23T07:36:34;1.80;;;1.17;;
10250;SDS011;5170;58.692;12.478;2023-04-23T07:39:21;2.33;;;1.47;;
10250;SDS011;5170;58.692;12.478;2023-04-23T07:42:09;0.70;;;0.70;;
10250;SDS011;5170;58.692;12.478;2023-04-23T07:44:57;0.70;;;0.50;;
10250;SDS011;5170;58.692;12.478;2023-04-23T07:47:46;1.00;;;0.70;;
10250;SDS011;5170;58.692;12.478;2023-04-23T07:50:36;1.23;;;0.93;;
10250;SDS011;5170;58.692;12.478;2023-04-23T07:53:24;1.03;;;0.90;;
10250;SDS011;5170;58.692;12.478;2023-04-23T07:56:13;1.97;;;1.37;;
10250;SDS011;5170;58.692;12.478;2023-04-23T07:59:00;1.17;;;0.67;;
10250;SDS011;5170;58.692;12.478;2023-04-23T08:01:48;2.60;;;1.00;;
10250;SDS011;5170;58.692;12.478;2023-04-23T08:04:36;1.13;;;0.97;;
10250;SDS011;5170;58.692;12.478;2023-04-23T08:07:25;1.97;;;1.40;;
10250;SDS011;5170;58.692;12.478;2023-04-23T08:10:14;1.97;;;1.47;;
10250;SDS011;5170;58.692;12.478;2023-04-23T08:13:02;1.53;;;1.10;;
10250;SDS011;5170;58.692;12.478;2023-04-23T08:15:50;1.73;;;1.20;;
10250;SDS011;5170;58.692;12.478;2023-04-23T08:18:37;1.50;;;1.13;;
10250;SDS011;5170;58.692;12.478;2023-04-23T08:21:25;1.50;;;1.20;;
10250;SDS011;5170;58.692;12.478;2023-04-23T08:24:15;1.13;;;1.03;;
10250;SDS011;5170;58.692;12.478;2023-04-23T08:27:03;1.80;;;1.47;;
10250;SDS011;5170;58.692;12.478;2023-04-23T08:29:52;3.30;;;1.20;;
10250;SDS011;5170;58.692;12.478;2023-04-23T08:32:39;4.17;;;1.30;;
10250;SDS011;5170;58.692;12.478;2023-04-23T08:35:27;3.37;;;1.50;;
10250;SDS011;5170;58.692;12.478;2023-04-23T08:38:15;2.33;;;1.50;;
10250;SDS011;5170;58.692;12.478;2023-04-23T08:41:04;2.10;;;1.20;;
10250;SDS011;5170;58.692;12.478;2023-04-23T08:43:56;1.33;;;0.83;;
10250;SDS011;5170;58.692;12.478;2023-04-23T08:46:46;2.53;;;1.33;;
10250;SDS011;5170;58.692;12.478;2023-04-23T08:49:34;1.27;;;1.10;;
10250;SDS011;5170;58.692;12.478;2023-04-23T08:52:23;3.70;;;1.30;;
10250;SDS011;5170;58.692;12.478;2023-04-23T08:55:10;2.50;;;1.53;;
10250;SDS011;5170;58.692;12.478;2023-04-23T08:58:01;3.07;;;1.53;;
10250;SDS011;5170;58.692;12.478;2023-04-23T09:00:50;3.90;;;1.80;;
10250;SDS011;5170;58.692;12.478;2023-04-23T09:03:38;2.37;;;1.70;;
10250;SDS011;5170;58.692;12.478;2023-04-23T09:06:27;2.73;;;1.23;;
10250;SDS011;5170;58.692;12.478;2023-04-23T09:09:17;1.57;;;1.30;;
10250;SDS011;5170;58.692;12.478;2023-04-23T09:12:08;1.97;;;1.37;;
10250;SDS011;5170;58.692;12.478;2023-04-23T09:14:57;3.47;;;1.50;;
10250;SDS011;5170;58.692;12.478;2023-04-23T09:17:45;4.90;;;2.00;;
10250;SDS011;5170;58.692;12.478;2023-04-23T09:20:34;3.57;;;2.10;;
10250;SDS011;5170;58.692;12.478;2023-04-23T09:23:22;5.70;;;2.07;;
10250;SDS011;5170;58.692;12.478;2023-04-23T09:26:09;3.33;;;1.90;;
10250;SDS011;5170;58.692;12.478;2023-04-23T09:29:06;3.43;;;1.83;;
10250;SDS011;5170;58.692;12.478;2023-04-23T09:32:04;2.93;;;1.50;;
10250;SDS011;5170;58.692;12.478;2023-04-23T09:34:54;5.03;;;2.40;;
10250;SDS011;5170;58.692;12.478;2023-04-23T09:37:43;1.77;;;1.67;;
10250;SDS011;5170;58.692;12.478;2023-04-23T09:40:32;4.77;;;2.10;;
10250;SDS011;5170;58.692;12.478;2023-04-23T09:43:21;4.83;;;2.03;;
10250;SDS011;5170;58.692;12.478;2023-04-23T09:46:08;3.60;;;1.93;;
10250;SDS011;5170;58.692;12.478;2023-04-23T09:48:58;3.97;;;2.07;;
10250;SDS011;5170;58.692;12.478;2023-04-23T09:51:47;3.20;;;2.00;;
10250;SDS011;5170;58.692;12.478;2023-04-23T09:54:36;4.37;;;2.20;;
10250;SDS011;5170;58.692;12.478;2023-04-23T09:57:24;3.40;;;1.93;;
10250;SDS011;5170;58.692;12.478;2023-04-23T10:00:12;3.97;;;2.70;;
10250;SDS011;5170;58.692;12.478;2023-04-23T10:03:01;3.83;;;2.53;;
10250;SDS011;5170;58.692;12.478;2023-04-23T10:05:50;3.43;;;2.17;;
10250;SDS011;5170;58.692;12.478;2023-04-23T10:08:40;4.00;;;3.03;;
10250;SDS011;5170;58.692;12.478;2023-04-23T10:11:29;4.77;;;2.37;;
10250;SDS011;5170;58.692;12.478;2023-04-23T10:14:17;4.93;;;2.67;;
10250;SDS011;5170;58.692;12.478;2023-04-23T10:17:04;4.40;;;2.90;;
10250;SDS011;5170;58.692;12.478;2023-04-23T10:19:53;2.83;;;2.53;;
10250;SDS011;5170;58.692;12.478;2023-04-23T10:22:43;3.57;;;2.53;;
10250;SDS011;5170;58.692;12.478;2023-04-23T10:25:32;4.60;;;2.90;;
10250;SDS011;5170;58.692;12.478;2023-04-23T10:28:20;4.73;;;3.27;;
10250;SDS011;5170;58.692;12.478;2023-04-23T10:31:13;4.73;;;3.30;;
10250;SDS011;5170;58.692;12.478;2023-04-23T10:34:01;6.10;;;3.80;;
10250;SDS011;5170;58.692;12.478;2023-04-23T10:36:51;5.97;;;3.77;;
10250;SDS011;5170;58.692;12.478;2023-04-23T10:39:42;5.53;;;3.80;;
10250;SDS011;5170;58.692;12.478;2023-04-23T10:42:30;5.23;;;3.70;;
10250;SDS011;5170;58.692;12.478;2023-04-23T10:45:18;5.77;;;4.03;;
10250;SDS011;5170;58.692;12.478;2023-04-23T10:48:07;8.03;;;4.50;;
10250;SDS011;5170;58.692;12.478;2023-04-23T10:50:58;8.50;;;4.43;;
10250;SDS011;5170;58.692;12.478;2023-04-23T10:53:46;7.60;;;4.83;;
10250;SDS011;5170;58.692;12.478;2023-04-23T10:56:35;6.60;;;4.90;;
10250;SDS011;5170;58.692;12.478;2023-04-23T10:59:23;7.17;;;4.27;;
10250;SDS011;5170;58.692;12.478;2023-04-23T11:02:13;9.70;;;5.90;;
10250;SDS011;5170;58.692;12.478;2023-04-23T11:05:01;7.57;;;4.63;;
10250;SDS011;5170;58.692;12.478;2023-04-23T11:08:01;6.80;;;4.30;;
10250;SDS011;5170;58.692;12.478;2023-04-23T11:10:53;6.03;;;3.73;;
10250;SDS011;5170;58.692;12.478;2023-04-23T11:13:51;8.10;;;3.67;;
10250;SDS011;5170;58.692;12.478;2023-04-23T11:16:39;7.80;;;4.70;;
10250;SDS011;5170;58.692;12.478;2023-04-23T11:19:27;7.37;;;3.50;;
10250;SDS011;5170;58.692;12.478;2023-04-23T11:22:16;7.07;;;3.47;;
10250;SDS011;5170;58.692;12.478;2023-04-23T11:25:07;5.20;;;3.67;;
10250;SDS011;5170;58.692;12.478;2023-04-23T11:27:56;5.87;;;4.20;;
10250;SDS011;5170;58.692;12.478;2023-04-23T11:30:45;6.37;;;4.10;;
10250;SDS011;5170;58.692;12.478;2023-04-23T11:33:37;5.47;;;3.47;;
10250;SDS011;5170;58.692;12.478;2023-04-23T11:36:24;6.17;;;3.93;;
10250;SDS011;5170;58.692;12.478;2023-04-23T11:39:13;3.77;;;2.87;;
10250;SDS011;5170;58.692;12.478;2023-04-23T11:42:03;4.63;;;2.97;;
10250;SDS011;5170;58.692;12.478;2023-04-23T11:44:51;5.80;;;3.57;;
10250;SDS011;5170;58.692;12.478;2023-04-23T11:47:42;5.13;;;3.47;;
10250;SDS011;5170;58.692;12.478;2023-04-23T11:50:29;5.97;;;3.67;;
10250;SDS011;5170;58.692;12.478;2023-04-23T11:53:20;4.03;;;2.60;;
10250;SDS011;5170;58.692;12.478;2023-04-23T11:56:08;6.23;;;3.57;;
10250;SDS011;5170;58.692;12.478;2023-04-23T11:58:59;5.03;;;3.40;;
10250;SDS011;5170;58.692;12.478;2023-04-23T12:01:49;6.90;;;3.50;;
10250;SDS011;5170;58.692;12.478;2023-04-23T12:04:38;5.90;;;3.03;;
10250;SDS011;5170;58.692;12.478;2023-04-23T12:07:30;5.03;;;3.27;;
10250;SDS011;5170;58.692;12.478;2023-04-23T12:10:18;5.00;;;3.17;;
10250;SDS011;5170;58.692;12.478;2023-04-23T12:13:06;3.13;;;2.40;;
10250;SDS011;5170;58.692;12.478;2023-04-23T12:16:00;4.13;;;2.43;;
10250;SDS011;5170;58.692;12.478;2023-04-23T12:18:52;3.73;;;3.07;;
10250;SDS011;5170;58.692;12.478;2023-04-23T12:21:48;4.17;;;2.23;;
10250;SDS011;5170;58.692;12.478;2023-04-23T12:24:44;4.53;;;2.80;;
10250;SDS011;5170;58.692;12.478;2023-04-23T12:27:32;3.73;;;2.27;;
10250;SDS011;5170;58.692;12.478;2023-04-23T12:30:19;5.13;;;2.30;;
10250;SDS011;5170;58.692;12.478;2023-04-23T12:33:09;5.20;;;2.17;;
10250;SDS011;5170;58.692;12.478;2023-04-23T12:35:57;4.03;;;2.77;;
10250;SDS011;5170;58.692;12.478;2023-04-23T12:38:46;4.87;;;2.47;;
10250;SDS011;5170;58.692;12.478;2023-04-23T12:41:34;5.43;;;2.23;;
10250;SDS011;5170;58.692;12.478;2023-04-23T12:44:22;2.30;;;1.90;;
10250;SDS011;5170;58.692;12.478;2023-04-23T12:47:09;2.53;;;1.97;;
10250;SDS011;5170;58.692;12.478;2023-04-23T12:49:59;5.07;;;1.97;;
10250;SDS011;5170;58.692;12.478;2023-04-23T12:52:48;2.80;;;1.83;;
10250;SDS011;5170;58.692;12.478;2023-04-23T12:55:37;3.17;;;1.53;;
10250;SDS011;5170;58.692;12.478;2023-04-23T12:58:27;2.33;;;1.57;;
10250;SDS011;5170;58.692;12.478;2023-04-23T13:01:15;2.23;;;1.40;;
10250;SDS011;5170;58.692;12.478;2023-04-23T13:04:03;2.53;;;1.40;;
10250;SDS011;5170;58.692;12.478;2023-04-23T13:06:51;3.77;;;2.10;;
10250;SDS011;5170;58.692;12.478;2023-04-23T13:09:38;2.63;;;2.17;;
10250;SDS011;5170;58.692;12.478;2023-04-23T13:12:27;2.83;;;2.40;;
10250;SDS011;5170;58.692;12.478;2023-04-23T13:15:15;3.20;;;2.27;;
10250;SDS011;5170;58.692;12.478;2023-04-23T13:18:03;3.13;;;1.90;;
10250;SDS011;5170;58.692;12.478;2023-04-23T13:20:51;2.90;;;2.07;;
10250;SDS011;5170;58.692;12.478;2023-04-23T13:23:38;4.43;;;2.27;;
10250;SDS011;5170;58.692;12.478;2023-04-23T13:26:26;4.60;;;2.70;;
10250;SDS011;5170;58.692;12.478;2023-04-23T13:29:17;3.07;;;2.40;;
10250;SDS011;5170;58.692;12.478;2023-04-23T13:32:05;4.03;;;2.93;;
10250;SDS011;5170;58.692;12.478;2023-04-23T13:34:53;3.10;;;2.13;;
10250;SDS011;5170;58.692;12.478;2023-04-23T13:37:40;4.63;;;3.00;;
10250;SDS011;5170;58.692;12.478;2023-04-23T13:40:28;4.67;;;2.40;;
10250;SDS011;5170;58.692;12.478;2023-04-23T13:43:16;6.07;;;2.73;;
10250;SDS011;5170;58.692;12.478;2023-04-23T13:46:05;4.37;;;2.50;;
10250;SDS011;5170;58.692;12.478;2023-04-23T13:48:52;8.70;;;3.83;;
10250;SDS011;5170;58.692;12.478;2023-04-23T13:51:40;3.70;;;2.87;;
10250;SDS011;5170;58.692;12.478;2023-04-23T13:54:28;4.07;;;3.00;;
10250;SDS011;5170;58.692;12.478;2023-04-23T13:57:16;4.13;;;2.77;;
10250;SDS011;5170;58.692;12.478;2023-04-23T14:00:03;4.63;;;2.90;;
10250;SDS011;5170;58.692;12.478;2023-04-23T14:02:53;4.43;;;3.10;;
10250;SDS011;5170;58.692;12.478;2023-04-23T14:05:40;6.43;;;4.30;;
10250;SDS011;5170;58.692;12.478;2023-04-23T14:08:28;5.07;;;4.00;;
10250;SDS011;5170;58.692;12.478;2023-04-23T14:11:15;5.17;;;3.50;;
10250;SDS011;5170;58.692;12.478;2023-04-23T14:14:03;8.13;;;4.33;;
10250;SDS011;5170;58.692;12.478;2023-04-23T14:16:51;15.17;;;4.87;;
10250;SDS011;5170;58.692;12.478;2023-04-23T14:19:40;6.23;;;3.77;;
10250;SDS011;5170;58.692;12.478;2023-04-23T14:22:28;10.13;;;3.93;;
10250;SDS011;5170;58.692;12.478;2023-04-23T14:25:22;5.67;;;3.40;;
10250;SDS011;5170;58.692;12.478;2023-04-23T14:28:32;5.87;;;3.77;;
10250;SDS011;5170;58.692;12.478;2023-04-23T14:31:20;5.80;;;3.17;;
10250;SDS011;5170;58.692;12.478;2023-04-23T14:34:07;5.17;;;3.40;;
10250;SDS011;5170;58.692;12.478;2023-04-23T14:36:57;10.63;;;4.03;;
10250;SDS011;5170;58.692;12.478;2023-04-23T14:39:45;9.03;;;4.10;;
10250;SDS011;5170;58.692;12.478;2023-04-23T14:42:32;5.73;;;3.63;;
10250;SDS011;5170;58.692;12.478;2023-04-23T14:45:20;8.90;;;4.50;;
10250;SDS011;5170;58.692;12.478;2023-04-23T14:48:08;12.80;;;5.93;;
10250;SDS011;5170;58.692;12.478;2023-04-23T14:50:55;9.07;;;3.77;;
10250;SDS011;5170;58.692;12.478;2023-04-23T14:53:44;5.70;;;3.83;;
10250;SDS011;5170;58.692;12.478;2023-04-23T14:56:32;7.17;;;3.90;;
10250;SDS011;5170;58.692;12.478;2023-04-23T14:59:20;7.93;;;4.20;;
10250;SDS011;5170;58.692;12.478;2023-04-23T15:02:07;7.07;;;3.77;;
10250;SDS011;5170;58.692;12.478;2023-04-23T15:04:56;5.83;;;3.80;;
10250;SDS011;5170;58.692;12.478;2023-04-23T15:07:44;6.13;;;4.20;;
10250;SDS011;5170;58.692;12.478;2023-04-23T15:10:33;5.97;;;3.40;;
10250;SDS011;5170;58.692;12.478;2023-04-23T15:13:30;5.67;;;3.63;;
10250;SDS011;5170;58.692;12.478;2023-04-23T15:16:23;5.90;;;4.20;;
10250;SDS011;5170;58.692;12.478;2023-04-23T15:19:13;4.77;;;3.40;;
10250;SDS011;5170;58.692;12.478;2023-04-23T15:22:02;8.60;;;4.17;;
10250;SDS011;5170;58.692;12.478;2023-04-23T15:24:49;6.40;;;3.93;;
10250;SDS011;5170;58.692;12.478;2023-04-23T15:27:38;6.53;;;3.60;;
10250;SDS011;5170;58.692;12.478;2023-04-23T15:30:26;4.63;;;3.73;;
10250;SDS011;5170;58.692;12.478;2023-04-23T15:33:14;7.13;;;4.77;;
10250;SDS011;5170;58.692;12.478;2023-04-23T15:36:05;11.50;;;4.43;;
10250;SDS011;5170;58.692;12.478;2023-04-23T15:38:53;8.30;;;4.10;;
10250;SDS011;5170;58.692;12.478;2023-04-23T15:41:41;5.83;;;4.10;;
10250;SDS011;5170;58.692;12.478;2023-04-23T15:44:30;10.67;;;4.70;;
10250;SDS011;5170;58.692;12.478;2023-04-23T15:47:18;7.97;;;5.23;;
10250;SDS011;5170;58.692;12.478;2023-04-23T15:50:06;6.30;;;4.27;;
10250;SDS011;5170;58.692;12.478;2023-04-23T15:52:53;7.23;;;4.10;;
10250;SDS011;5170;58.692;12.478;2023-04-23T15:55:43;7.77;;;3.53;;
10250;SDS011;5170;58.692;12.478;2023-04-23T15:58:31;6.70;;;3.70;;
10250;SDS011;5170;58.692;12.478;2023-04-23T16:01:20;7.77;;;3.67;;
10250;SDS011;5170;58.692;12.478;2023-04-23T16:04:07;7.30;;;4.00;;
10250;SDS011;5170;58.692;12.478;2023-04-23T16:06:55;6.37;;;3.63;;
10250;SDS011;5170;58.692;12.478;2023-04-23T16:09:43;5.60;;;3.20;;
10250;SDS011;5170;58.692;12.478;2023-04-23T16:12:30;6.20;;;4.20;;
10250;SDS011;5170;58.692;12.478;2023-04-23T16:15:18;7.43;;;3.83;;
10250;SDS011;5170;58.692;12.478;2023-04-23T16:18:07;9.23;;;3.63;;
10250;SDS011;5170;58.692;12.478;2023-04-23T16:20:54;5.97;;;4.17;;
10250;SDS011;5170;58.692;12.478;2023-04-23T16:23:43;9.20;;;4.13;;
10250;SDS011;5170;58.692;12.478;2023-04-23T16:26:30;5.27;;;3.10;;
10250;SDS011;5170;58.692;12.478;2023-04-23T16:29:18;5.20;;;3.73;;
10250;SDS011;5170;58.692;12.478;2023-04-23T16:32:06;4.23;;;3.77;;
10250;SDS011;5170;58.692;12.478;2023-04-23T16:34:55;5.20;;;3.40;;
10250;SDS011;5170;58.692;12.478;2023-04-23T16:37:43;5.87;;;3.53;;
10250;SDS011;5170;58.692;12.478;2023-04-23T16:40:30;5.43;;;3.40;;
10250;SDS011;5170;58.692;12.478;2023-04-23T16:43:18;7.50;;;4.70;;
10250;SDS011;5170;58.692;12.478;2023-04-23T16:46:06;4.77;;;3.27;;
10250;SDS011;5170;58.692;12.478;2023-04-23T16:48:55;8.03;;;5.07;;
10250;SDS011;5170;58.692;12.478;2023-04-23T16:51:44;7.87;;;4.17;;
10250;SDS011;5170;58.692;12.478;2023-04-23T16:54:32;7.27;;;4.00;;
10250;SDS011;5170;58.692;12.478;2023-04-23T16:57:20;4.97;;;3.17;;